createdAt,value
2017-09-18T00:01:20.607Z,99.80
2017-09-18T00:03:48.062Z,99.90
2017-09-18T00:06:15.521Z,99.90
2017-09-18T00:08:43.388Z,99.90
2017-09-18T00:11:10.800Z,99.90
2017-09-18T00:13:38.221Z,99.90
2017-09-18T00:16:05.649Z,99.90
2017-09-18T00:18:33.121Z,99.90
2017-09-18T00:21:00.537Z,99.60
2017-09-18T00:23:28.708Z,99.80
2017-09-18T00:25:56.911Z,99.90
2017-09-18T00:28:24.324Z,99.90
2017-09-18T00:30:52.126Z,99.90
2017-09-18T00:33:19.534Z,99.60
2017-09-18T00:35:47.771Z,99.80
2017-09-18T00:38:15.219Z,99.80
2017-09-18T00:40:42.637Z,99.70
2017-09-18T00:43:10.846Z,99.90
2017-09-18T00:45:38.260Z,99.90
2017-09-18T00:48:05.667Z,99.90
2017-09-18T00:50:33.089Z,99.90
2017-09-18T00:53:01.272Z,99.90
2017-09-18T00:55:29.440Z,99.90
2017-09-18T00:57:57.326Z,99.90
2017-09-18T01:00:24.738Z,99.90
2017-09-18T01:02:52.924Z,99.90
2017-09-18T01:05:21.136Z,99.90
2017-09-18T01:07:48.546Z,99.90
2017-09-18T01:10:16.729Z,99.90
2017-09-18T01:12:44.903Z,99.90
2017-09-18T01:15:13.125Z,99.90
2017-09-18T01:17:40.571Z,99.90
2017-09-18T01:20:08.024Z,99.90
2017-09-18T01:22:35.438Z,99.60
2017-09-18T01:25:03.608Z,99.90
2017-09-18T01:27:31.358Z,99.90
2017-09-18T01:29:59.171Z,99.90
2017-09-18T01:32:27.039Z,99.90
2017-09-18T01:34:54.446Z,99.90
2017-09-18T01:37:21.850Z,99.90
2017-09-18T01:39:49.260Z,99.90
2017-09-18T01:42:16.667Z,99.90
2017-09-18T01:44:44.071Z,99.90
2017-09-18T01:47:11.579Z,99.90
2017-09-18T01:49:38.994Z,99.90
2017-09-18T01:52:06.486Z,99.90
2017-09-18T01:54:33.891Z,99.90
2017-09-18T01:57:01.307Z,99.90
2017-09-18T01:59:28.715Z,99.90
2017-09-18T02:01:56.219Z,99.90
2017-09-18T02:04:23.670Z,99.90
2017-09-18T02:06:51.080Z,99.90
2017-09-18T02:09:19.299Z,99.90
2017-09-18T02:11:46.959Z,99.90
2017-09-18T02:14:14.423Z,99.90
2017-09-18T02:16:41.834Z,99.90
2017-09-18T02:19:10.051Z,99.90
2017-09-18T02:21:37.496Z,99.90
2017-09-18T02:24:04.903Z,99.90
2017-09-18T02:26:32.311Z,99.90
2017-09-18T02:28:59.725Z,99.90
2017-09-18T02:31:27.243Z,99.90
2017-09-18T02:33:54.650Z,99.90
2017-09-18T02:36:22.819Z,99.90
2017-09-18T02:38:51.147Z,99.90
2017-09-18T02:41:18.590Z,99.90
2017-09-18T02:43:46.003Z,99.90
2017-09-18T02:46:13.509Z,99.90
2017-09-18T02:48:40.968Z,99.90
2017-09-18T02:51:08.427Z,99.90
2017-09-18T02:53:35.824Z,99.90
2017-09-18T02:56:03.218Z,99.90
2017-09-18T02:58:30.631Z,99.90
2017-09-18T03:00:58.038Z,99.90
2017-09-18T03:03:25.453Z,99.90
2017-09-18T03:05:52.859Z,99.90
2017-09-18T03:08:20.274Z,99.90
2017-09-18T03:10:48.446Z,99.90
2017-09-18T03:13:16.627Z,99.90
2017-09-18T03:15:44.832Z,99.90
2017-09-18T03:18:12.286Z,99.90
2017-09-18T03:20:39.701Z,99.90
2017-09-18T03:23:07.875Z,99.90
2017-09-18T03:25:36.091Z,99.90
2017-09-18T03:28:04.059Z,99.90
2017-09-18T03:30:31.831Z,99.90
2017-09-18T03:32:59.243Z,99.90
2017-09-18T03:35:27.430Z,99.90
2017-09-18T03:37:54.835Z,99.90
2017-09-18T03:40:22.831Z,99.90
2017-09-18T03:42:51.003Z,99.90
2017-09-18T03:45:19.190Z,99.90
2017-09-18T03:47:47.606Z,99.90
2017-09-18T03:50:15.022Z,99.90
2017-09-18T03:52:43.200Z,99.80
2017-09-18T03:55:11.376Z,99.50
2017-09-18T03:57:41.019Z,99.20
2017-09-18T04:00:08.419Z,99.20
2017-09-18T04:02:36.619Z,98.80
2017-09-18T04:05:04.094Z,99.10
2017-09-18T04:07:31.557Z,99.40
2017-09-18T04:09:58.979Z,99.40
2017-09-18T04:12:27.161Z,99.30
2017-09-18T04:14:55.331Z,99.40
2017-09-18T04:17:23.503Z,99.40
2017-09-18T04:19:51.706Z,99.10
2017-09-18T04:22:19.107Z,99.10
2017-09-18T04:24:47.874Z,99.00
2017-09-18T04:27:15.282Z,99.10
2017-09-18T04:29:42.700Z,99.20
2017-09-18T04:32:10.112Z,99.00
2017-09-18T04:34:37.578Z,99.30
2017-09-18T04:37:05.002Z,98.80
2017-09-18T04:39:33.209Z,98.50
2017-09-18T04:42:00.603Z,98.80
2017-09-18T04:44:28.020Z,99.00
2017-09-18T04:46:55.428Z,99.20
2017-09-18T04:49:23.603Z,99.80
2017-09-18T04:51:51.775Z,99.90
2017-09-18T04:54:19.947Z,99.90
2017-09-18T04:56:48.135Z,99.90
2017-09-18T04:59:16.307Z,99.90
2017-09-18T05:01:44.488Z,99.90
2017-09-18T05:04:12.694Z,99.90
2017-09-18T05:06:40.134Z,99.90
2017-09-18T05:09:07.995Z,99.90
2017-09-18T05:11:35.668Z,99.90
2017-09-18T05:14:03.130Z,99.90
2017-09-18T05:16:30.535Z,99.90
2017-09-18T05:18:58.710Z,99.90
2017-09-18T05:21:26.891Z,99.90
2017-09-18T05:23:55.087Z,99.90
2017-09-18T05:26:22.502Z,99.90
2017-09-18T05:28:50.022Z,99.90
2017-09-18T05:31:17.503Z,99.90
2017-09-18T05:33:44.899Z,99.90
2017-09-18T05:36:13.100Z,99.90
2017-09-18T05:38:40.506Z,99.90
2017-09-18T05:41:08.310Z,99.90
2017-09-18T05:43:35.728Z,99.90
2017-09-18T05:46:03.235Z,99.60
2017-09-18T05:48:31.747Z,99.40
2017-09-18T05:50:59.159Z,99.00
2017-09-18T05:53:26.623Z,98.80
2017-09-18T05:55:54.587Z,98.70
2017-09-18T05:58:21.999Z,98.70
2017-09-18T06:00:49.414Z,99.00
2017-09-18T06:03:16.836Z,99.00
2017-09-18T06:05:44.430Z,98.80
2017-09-18T06:08:11.875Z,98.70
2017-09-18T06:10:39.335Z,98.70
2017-09-18T06:13:06.746Z,98.90
2017-09-18T06:15:34.242Z,98.80
2017-09-18T06:18:01.698Z,98.40
2017-09-18T06:20:29.132Z,97.80
2017-09-18T06:22:57.335Z,98.20
2017-09-18T06:25:24.750Z,98.20
2017-09-18T06:27:52.152Z,98.00
2017-09-18T06:30:19.600Z,97.70
2017-09-18T06:32:47.027Z,97.70
2017-09-18T06:35:15.213Z,97.50
2017-09-18T06:37:42.639Z,97.50
2017-09-18T06:40:10.049Z,97.40
2017-09-18T06:42:37.499Z,97.30
2017-09-18T06:45:04.927Z,97.00
2017-09-18T06:47:33.108Z,96.70
2017-09-18T06:50:00.587Z,96.70
2017-09-18T06:52:28.004Z,96.90
2017-09-18T06:54:56.223Z,96.70
2017-09-18T06:57:23.653Z,96.70
2017-09-18T06:59:51.842Z,96.50
2017-09-18T07:02:19.259Z,96.50
2017-09-18T07:04:47.480Z,96.50
2017-09-18T07:07:14.903Z,96.60
2017-09-18T07:09:42.316Z,96.70
2017-09-18T07:12:09.732Z,96.90
2017-09-18T07:14:37.339Z,96.70
2017-09-18T07:17:04.875Z,96.70
2017-09-18T07:19:32.286Z,96.40
2017-09-18T07:22:00.503Z,96.00
2017-09-18T07:24:27.953Z,96.00
2017-09-18T07:26:55.363Z,96.20
2017-09-18T07:29:22.871Z,96.50
2017-09-18T07:31:50.329Z,96.20
2017-09-18T07:34:17.723Z,96.00
2017-09-18T07:36:45.139Z,95.60
2017-09-18T07:39:12.600Z,95.60
2017-09-18T07:41:40.056Z,95.40
2017-09-18T07:44:07.507Z,95.20
2017-09-18T07:46:34.965Z,95.20
2017-09-18T07:49:02.371Z,95.10
2017-09-18T07:51:31.084Z,94.80
2017-09-18T07:53:58.501Z,94.60
2017-09-18T07:56:27.428Z,94.10
2017-09-18T07:58:54.910Z,94.10
2017-09-18T08:01:22.354Z,93.80
2017-09-18T08:03:49.771Z,94.20
2017-09-18T08:06:17.987Z,94.00
2017-09-18T08:08:45.403Z,93.90
2017-09-18T08:11:13.601Z,94.00
2017-09-18T08:13:41.598Z,94.00
2017-09-18T08:16:09.031Z,93.30
2017-09-18T08:18:37.222Z,93.10
2017-09-18T08:21:04.620Z,93.10
2017-09-18T08:23:32.047Z,92.90
2017-09-18T08:25:59.467Z,92.80
2017-09-18T08:28:26.934Z,92.60
2017-09-18T08:30:54.342Z,92.60
2017-09-18T08:33:21.856Z,92.80
2017-09-18T08:35:49.314Z,92.00
2017-09-18T08:38:16.702Z,91.60
2017-09-18T08:40:44.735Z,91.70
2017-09-18T08:43:12.146Z,91.40
2017-09-18T08:45:40.346Z,90.90
2017-09-18T08:48:07.817Z,90.90
2017-09-18T08:50:35.234Z,91.00
2017-09-18T08:53:03.421Z,90.00
2017-09-18T08:55:30.840Z,90.00
2017-09-18T08:57:58.267Z,88.80
2017-09-18T09:00:25.675Z,89.40
2017-09-18T09:02:53.854Z,90.40
2017-09-18T09:05:22.104Z,91.00
2017-09-18T09:07:49.520Z,91.00
2017-09-18T09:10:16.989Z,91.80
2017-09-18T09:12:44.429Z,93.00
2017-09-18T09:15:12.606Z,93.30
2017-09-18T09:17:40.067Z,93.30
2017-09-18T09:20:07.479Z,92.80
2017-09-18T09:22:35.659Z,92.90
2017-09-18T09:25:03.862Z,92.80
2017-09-18T09:27:31.279Z,92.80
2017-09-18T09:29:59.810Z,93.60
2017-09-18T09:32:27.219Z,93.50
2017-09-18T09:34:55.434Z,93.60
2017-09-18T09:37:22.847Z,93.60
2017-09-18T09:39:51.075Z,94.00
2017-09-18T09:42:18.487Z,94.00
2017-09-18T09:44:46.671Z,93.60
2017-09-18T09:47:14.849Z,93.40
2017-09-18T09:49:42.267Z,93.40
2017-09-18T09:52:10.401Z,93.40
2017-09-18T09:54:37.857Z,93.30
2017-09-18T09:57:05.312Z,93.30
2017-09-18T09:59:32.717Z,93.40
2017-09-18T10:02:00.336Z,93.90
2017-09-18T10:04:27.730Z,94.30
2017-09-18T10:06:56.689Z,94.70
2017-09-18T10:09:24.100Z,94.70
2017-09-18T10:11:52.287Z,94.30
2017-09-18T10:14:19.763Z,94.30
2017-09-18T10:16:47.189Z,94.40
2017-09-18T10:19:15.355Z,94.30
2017-09-18T10:21:43.578Z,94.20
2017-09-18T10:24:10.987Z,94.10
2017-09-18T10:26:39.178Z,93.50
2017-09-18T10:29:06.597Z,93.50
2017-09-18T10:31:34.008Z,93.70
2017-09-18T10:34:01.446Z,93.30
2017-09-18T10:36:29.642Z,90.80
2017-09-18T10:38:57.505Z,90.80
2017-09-18T10:41:24.918Z,90.10
2017-09-18T10:43:52.936Z,90.60
2017-09-18T10:46:20.352Z,89.60
2017-09-18T10:48:48.530Z,88.80
2017-09-18T10:51:16.726Z,89.50
2017-09-18T10:53:44.927Z,88.60
2017-09-18T10:56:12.412Z,88.60
2017-09-18T10:58:39.821Z,88.70
2017-09-18T11:01:07.509Z,87.70
2017-09-18T11:03:34.985Z,84.80
2017-09-18T11:06:02.401Z,83.60
2017-09-18T11:08:29.801Z,81.90
2017-09-18T11:10:57.431Z,81.60
2017-09-18T11:13:24.867Z,81.80
2017-09-18T11:15:52.326Z,80.40
2017-09-18T11:18:20.691Z,81.10
2017-09-18T11:20:48.110Z,81.00
2017-09-18T11:23:15.614Z,80.80
2017-09-18T11:25:43.069Z,81.10
2017-09-18T11:28:11.253Z,82.00
2017-09-18T11:30:38.672Z,81.90
2017-09-18T11:33:06.156Z,80.00
2017-09-18T11:35:33.621Z,76.70
2017-09-18T11:38:01.034Z,78.50
2017-09-18T11:40:29.219Z,74.90
2017-09-18T11:42:56.647Z,74.80
2017-09-18T11:45:24.067Z,71.60
2017-09-18T11:47:52.042Z,71.00
2017-09-18T11:50:19.467Z,66.70
2017-09-18T11:52:47.483Z,64.20
2017-09-18T11:55:15.522Z,62.40
2017-09-18T11:57:43.287Z,59.80
2017-09-18T12:00:10.688Z,59.50
2017-09-18T12:02:38.104Z,58.00
2017-09-18T12:05:05.548Z,56.90
2017-09-18T12:07:32.977Z,56.80
2017-09-18T12:10:00.463Z,56.50
2017-09-18T12:12:27.880Z,54.70
2017-09-18T12:14:56.088Z,53.40
2017-09-18T12:17:23.511Z,53.40
2017-09-18T12:19:51.691Z,55.40
2017-09-18T12:22:19.899Z,57.00
2017-09-18T12:24:47.319Z,57.00
2017-09-18T12:27:15.514Z,55.20
2017-09-18T12:29:42.927Z,55.20
2017-09-18T12:32:10.335Z,55.20
2017-09-18T12:34:37.790Z,52.70
2017-09-18T12:37:05.214Z,50.30
2017-09-18T12:39:33.387Z,47.30
2017-09-18T12:42:02.107Z,46.20
2017-09-18T12:44:29.519Z,46.10
2017-09-18T12:46:57.691Z,39.30
2017-09-18T12:49:25.951Z,38.30
2017-09-18T12:51:53.361Z,38.30
2017-09-18T12:54:20.790Z,35.50
2017-09-18T12:56:48.970Z,35.30
2017-09-18T12:59:17.173Z,39.60
2017-09-18T13:01:44.579Z,39.50
2017-09-18T13:04:12.829Z,52.60
2017-09-18T13:06:40.247Z,52.50
2017-09-18T13:09:07.738Z,54.00
2017-09-18T13:11:35.178Z,56.30
2017-09-18T13:14:02.588Z,57.90
2017-09-18T13:16:30.799Z,63.00
2017-09-18T13:18:58.968Z,62.00
2017-09-18T13:21:26.387Z,61.30
2017-09-18T13:23:54.599Z,58.20
2017-09-18T13:26:22.033Z,58.20
2017-09-18T13:28:50.212Z,47.50
2017-09-18T13:31:17.635Z,47.40
2017-09-18T13:33:45.059Z,50.60
2017-09-18T13:36:12.482Z,52.70
2017-09-18T13:41:10.348Z,54.60
2017-09-18T13:43:38.544Z,60.30
2017-09-18T13:46:06.228Z,60.20
2017-09-18T13:48:33.917Z,63.20
2017-09-18T13:51:01.361Z,65.10
2017-09-18T13:53:28.788Z,66.90
2017-09-18T13:55:56.244Z,70.50
2017-09-18T13:58:23.716Z,73.30
2017-09-18T14:00:51.147Z,75.90
2017-09-18T14:03:18.564Z,77.50
2017-09-18T14:05:46.002Z,78.40
2017-09-18T14:08:13.468Z,78.80
2017-09-18T14:10:40.884Z,79.00
2017-09-18T14:13:09.100Z,82.50
2017-09-18T14:15:37.321Z,77.50
2017-09-18T14:18:04.763Z,77.50
2017-09-18T14:20:32.570Z,76.40
2017-09-18T14:22:59.975Z,78.90
2017-09-18T14:25:46.244Z,79.50
2017-09-18T14:28:13.657Z,79.50
2017-09-18T14:30:41.712Z,82.10
2017-09-18T14:33:09.161Z,85.10
2017-09-18T14:35:36.571Z,88.50
2017-09-18T14:38:04.076Z,88.30
2017-09-18T14:40:33.278Z,88.90
2017-09-18T14:43:00.760Z,88.90
2017-09-18T14:45:28.968Z,91.70
2017-09-18T14:47:56.378Z,91.70
2017-09-18T14:50:23.837Z,91.80
2017-09-18T14:52:51.289Z,93.70
2017-09-18T14:55:20.224Z,93.90
2017-09-18T14:57:48.070Z,93.90
2017-09-18T15:00:15.542Z,94.20
2017-09-18T15:02:43.012Z,94.30
2017-09-18T15:05:10.454Z,94.60
2017-09-18T15:07:37.935Z,95.00
2017-09-18T15:10:05.516Z,95.40
2017-09-18T15:12:34.491Z,96.10
2017-09-18T15:15:02.347Z,96.00
2017-09-18T15:17:30.567Z,96.40
2017-09-18T15:19:57.979Z,95.90
2017-09-18T15:22:25.389Z,95.60
2017-09-18T15:24:52.836Z,95.30
2017-09-18T15:27:20.246Z,95.40
2017-09-18T15:29:47.755Z,96.10
2017-09-18T15:32:15.163Z,96.10
2017-09-18T15:34:43.343Z,93.20
2017-09-18T15:37:11.519Z,92.30
2017-09-18T15:39:39.699Z,92.90
2017-09-18T15:42:07.193Z,92.90
2017-09-18T15:44:34.593Z,93.70
2017-09-18T15:47:02.087Z,94.50
2017-09-18T15:49:29.503Z,95.40
2017-09-18T15:51:56.912Z,96.00
2017-09-18T15:54:24.461Z,97.30
2017-09-18T15:56:52.650Z,98.40
2017-09-18T15:59:20.163Z,98.30
2017-09-18T16:01:47.582Z,98.00
2017-09-18T16:04:15.227Z,98.40
2017-09-18T16:06:42.706Z,99.40
2017-09-18T16:09:10.186Z,98.80
2017-09-18T16:11:37.635Z,98.30
2017-09-18T16:14:05.056Z,98.10
2017-09-18T16:16:32.567Z,97.30
2017-09-18T16:18:59.968Z,97.40
2017-09-18T16:21:27.470Z,98.10
2017-09-18T16:23:54.924Z,99.00
2017-09-18T16:26:22.396Z,99.90
2017-09-18T16:28:49.959Z,99.70
2017-09-18T16:31:18.174Z,99.60
2017-09-18T16:33:45.685Z,99.60
2017-09-18T16:36:13.260Z,99.40
2017-09-18T16:38:41.448Z,99.60
2017-09-18T16:41:08.896Z,99.60
2017-09-18T16:43:36.688Z,99.50
2017-09-18T16:46:04.163Z,99.20
2017-09-18T16:48:31.656Z,99.90
2017-09-18T16:50:59.864Z,98.90
2017-09-18T16:53:27.323Z,98.90
2017-09-18T16:55:54.747Z,99.20
2017-09-18T16:58:22.166Z,98.80
2017-09-18T17:00:49.579Z,98.60
2017-09-18T17:03:17.003Z,99.20
2017-09-18T17:05:45.177Z,99.60
2017-09-18T17:08:13.355Z,99.80
2017-09-18T17:10:41.560Z,99.90
2017-09-18T17:13:09.003Z,99.90
2017-09-18T17:15:37.803Z,99.50
2017-09-18T17:18:05.246Z,99.50
2017-09-18T17:20:32.941Z,99.90
2017-09-18T17:23:00.369Z,99.90
2017-09-18T17:25:27.782Z,99.90
2017-09-18T17:27:55.193Z,99.90
2017-09-18T17:30:22.605Z,99.90
2017-09-18T17:32:50.835Z,99.90
2017-09-18T17:35:18.263Z,99.90
2017-09-18T17:37:45.703Z,99.90
2017-09-18T17:40:13.180Z,99.90
2017-09-18T17:42:40.665Z,99.90
2017-09-18T17:45:08.120Z,99.90
2017-09-18T17:47:35.538Z,99.90
2017-09-18T17:50:03.754Z,99.90
2017-09-18T17:52:31.162Z,99.90
2017-09-18T17:54:59.473Z,99.90
2017-09-18T17:57:26.864Z,99.90
2017-09-18T17:59:54.380Z,99.90
2017-09-18T18:02:21.847Z,99.90
2017-09-18T18:04:49.260Z,99.90
2017-09-18T18:07:17.440Z,99.90
2017-09-18T18:09:45.134Z,99.90
2017-09-18T18:12:12.538Z,99.90
2017-09-18T18:14:39.963Z,99.90
2017-09-18T18:17:07.375Z,99.90
2017-09-18T18:19:34.798Z,99.90
2017-09-18T18:22:02.226Z,99.90
2017-09-18T18:24:29.639Z,99.90
2017-09-18T18:26:57.058Z,99.90
2017-09-18T18:29:25.984Z,99.50
2017-09-18T18:31:54.235Z,99.90
2017-09-18T18:34:21.753Z,99.90
2017-09-18T18:36:49.295Z,99.90
2017-09-18T18:39:17.505Z,99.90
2017-09-18T18:41:44.939Z,99.90
2017-09-18T18:44:12.348Z,99.90
2017-09-18T18:46:40.562Z,99.90
2017-09-18T18:49:08.036Z,99.90
2017-09-18T18:51:35.473Z,99.90
2017-09-18T18:54:02.989Z,99.90
2017-09-18T18:56:30.543Z,99.90
2017-09-18T18:58:57.968Z,99.90
2017-09-18T19:01:25.474Z,99.90
2017-09-18T19:03:52.893Z,99.90
2017-09-18T19:06:20.321Z,99.90
2017-09-18T19:08:47.805Z,99.90
2017-09-18T19:11:15.272Z,99.90
2017-09-18T19:13:42.711Z,99.90
2017-09-18T19:16:10.203Z,99.90
2017-09-18T19:18:37.630Z,99.90
2017-09-18T19:21:05.084Z,99.90
2017-09-18T19:23:32.475Z,99.90
2017-09-18T19:26:00.688Z,99.90
2017-09-18T19:28:28.136Z,99.90
2017-09-18T19:30:55.578Z,99.90
2017-09-18T19:33:23.030Z,99.90
2017-09-18T19:35:51.233Z,99.90
2017-09-18T19:38:18.674Z,99.90
2017-09-18T19:40:46.169Z,99.90
2017-09-18T19:43:14.360Z,99.90
2017-09-18T19:45:41.776Z,99.90
2017-09-18T19:48:09.220Z,99.90
2017-09-18T19:50:36.675Z,99.90
2017-09-18T19:53:04.167Z,99.90
2017-09-18T19:55:31.613Z,99.90
2017-09-18T19:57:59.123Z,99.90
2017-09-18T20:00:28.091Z,99.90
2017-09-18T20:02:55.539Z,99.90
2017-09-18T20:05:23.007Z,99.90
2017-09-18T20:07:50.421Z,99.90
2017-09-18T20:10:17.926Z,99.90
2017-09-18T20:12:45.336Z,99.50
2017-09-18T20:15:12.783Z,99.40
2017-09-18T20:17:40.257Z,99.40
2017-09-18T20:20:07.705Z,99.00
2017-09-18T20:22:35.171Z,99.10
2017-09-18T20:25:02.653Z,99.20
2017-09-18T20:27:30.061Z,99.20
2017-09-18T20:29:58.409Z,99.40
2017-09-18T20:32:25.907Z,99.50
2017-09-18T20:34:53.410Z,99.40
2017-09-18T20:37:20.874Z,99.60
2017-09-18T20:39:48.286Z,99.30
2017-09-18T20:42:16.254Z,99.70
2017-09-18T20:44:43.771Z,99.90
2017-09-18T20:47:11.988Z,99.90
2017-09-18T20:49:39.402Z,99.90
2017-09-18T20:52:07.603Z,99.10
2017-09-18T20:54:35.060Z,99.10
2017-09-18T20:57:02.463Z,99.60
2017-09-18T20:59:30.861Z,99.30
2017-09-18T21:01:58.287Z,99.70
2017-09-18T21:04:25.712Z,99.90
2017-09-18T21:06:53.127Z,99.90
2017-09-18T21:09:21.307Z,99.90
2017-09-18T21:11:49.488Z,99.90
2017-09-18T21:14:17.583Z,99.90
2017-09-18T21:16:44.990Z,99.90
2017-09-18T21:19:13.247Z,99.90
2017-09-18T21:21:40.670Z,99.90
2017-09-18T21:24:08.088Z,99.90
2017-09-18T21:26:36.273Z,99.90
2017-09-18T21:29:03.691Z,99.90
2017-09-18T21:31:32.615Z,99.90
2017-09-18T21:34:00.817Z,99.90
2017-09-18T21:36:28.233Z,99.90
2017-09-18T21:38:56.410Z,99.90
2017-09-18T21:41:24.591Z,99.90
2017-09-18T21:43:52.799Z,99.90
2017-09-18T21:46:20.250Z,99.90
2017-09-18T21:48:47.668Z,99.90
2017-09-18T21:51:15.846Z,99.90
2017-09-18T21:53:44.031Z,99.90
2017-09-18T21:56:11.451Z,99.90
2017-09-18T21:58:39.630Z,99.90
2017-09-18T22:01:07.811Z,99.90
2017-09-18T22:03:35.991Z,99.90
2017-09-18T22:06:04.202Z,99.90
2017-09-18T22:08:31.620Z,99.90
2017-09-18T22:10:59.803Z,99.90
2017-09-18T22:13:27.567Z,99.90
2017-09-18T22:15:55.755Z,99.90
2017-09-18T22:18:23.167Z,99.90
2017-09-18T22:20:55.922Z,99.90
2017-09-18T22:23:23.371Z,99.90
2017-09-18T22:25:50.791Z,99.90
2017-09-18T22:28:18.203Z,99.90
2017-09-18T22:30:45.635Z,99.90
2017-09-18T22:33:13.057Z,99.90
2017-09-18T22:35:40.470Z,99.90
2017-09-18T22:38:08.663Z,99.90
2017-09-18T22:40:36.174Z,99.90
2017-09-18T22:43:03.591Z,99.90
2017-09-18T22:45:31.779Z,99.90
2017-09-18T22:47:59.195Z,99.90
2017-09-18T22:50:26.631Z,99.90
2017-09-18T22:52:54.034Z,99.90
2017-09-18T22:55:22.222Z,99.90
2017-09-18T22:57:49.647Z,99.90
2017-09-18T23:00:17.199Z,99.90
2017-09-18T23:02:44.715Z,99.90
2017-09-18T23:05:12.136Z,99.90
2017-09-18T23:07:40.328Z,99.90
2017-09-18T23:10:07.739Z,99.90
2017-09-18T23:12:35.175Z,99.90
2017-09-18T23:15:02.591Z,99.90
2017-09-18T23:17:30.011Z,99.90
2017-09-18T23:19:58.199Z,99.90
2017-09-18T23:22:26.379Z,99.90
2017-09-18T23:24:54.611Z,99.90
2017-09-18T23:27:22.027Z,99.90
2017-09-18T23:29:49.447Z,99.90
2017-09-18T23:32:17.634Z,99.90
2017-09-18T23:34:45.810Z,99.90
2017-09-18T23:37:14.018Z,99.90
2017-09-18T23:39:41.435Z,99.90
2017-09-18T23:42:09.631Z,99.90
2017-09-18T23:44:37.047Z,99.90
2017-09-18T23:47:05.287Z,99.90
2017-09-18T23:49:32.694Z,99.90
2017-09-18T23:52:00.886Z,99.90
2017-09-18T23:54:28.312Z,99.90
2017-09-18T23:56:55.732Z,99.90
2017-09-18T23:59:23.152Z,99.90
